createdAt,value
2017-10-10T00:00:59.918Z,0
2017-10-10T00:02:09.915Z,0
2017-10-10T00:03:20.249Z,0
2017-10-10T00:04:30.245Z,0
2017-10-10T00:05:39.911Z,0
2017-10-10T00:06:49.574Z,0
2017-10-10T00:07:59.909Z,0
2017-10-10T00:09:10.235Z,0
2017-10-10T00:10:20.574Z,0
2017-10-10T00:11:32.885Z,0
2017-10-10T00:12:42.552Z,0
2017-10-10T00:13:52.897Z,0
2017-10-10T00:15:03.235Z,0
2017-10-10T00:16:13.264Z,0
2017-10-10T00:17:23.602Z,0
2017-10-10T00:18:33.597Z,0
2017-10-10T00:19:43.925Z,0
2017-10-10T00:20:53.917Z,0
2017-10-10T00:22:03.913Z,0
2017-10-10T00:23:13.575Z,0
2017-10-10T00:24:23.566Z,0
2017-10-10T00:25:33.227Z,0
2017-10-10T00:26:43.225Z,0
2017-10-10T00:27:52.885Z,0
2017-10-10T00:29:06.551Z,0
2017-10-10T00:30:16.884Z,0
2017-10-10T00:31:26.888Z,0
2017-10-10T00:32:36.893Z,0
2017-10-10T00:33:46.560Z,0
2017-10-10T00:34:56.584Z,0
2017-10-10T00:36:05.918Z,0
2017-10-10T00:37:15.915Z,0
2017-10-10T00:38:25.906Z,0
2017-10-10T00:39:35.920Z,0
2017-10-10T00:40:45.921Z,0
2017-10-10T00:41:55.599Z,0
2017-10-10T00:43:05.935Z,0
2017-10-10T00:44:15.937Z,0
2017-10-10T00:45:25.937Z,0
2017-10-10T00:46:35.924Z,0
2017-10-10T00:47:46.256Z,0
2017-10-10T00:48:56.252Z,0
2017-10-10T00:50:05.926Z,0
2017-10-10T00:51:15.922Z,0
2017-10-10T00:52:25.915Z,0
2017-10-10T00:53:36.249Z,0
2017-10-10T00:54:46.582Z,0
2017-10-10T00:55:56.914Z,0
2017-10-10T00:57:07.245Z,0
2017-10-10T00:58:17.247Z,0
2017-10-10T00:59:27.602Z,0
2017-10-10T01:00:37.930Z,0
2017-10-10T01:01:47.966Z,0
2017-10-10T01:02:58.305Z,0
2017-10-10T01:04:07.970Z,0
2017-10-10T01:05:17.960Z,0
2017-10-10T01:06:27.956Z,0
2017-10-10T01:07:37.993Z,0
2017-10-10T01:08:48.328Z,0
2017-10-10T01:09:57.986Z,0
2017-10-10T01:11:07.652Z,0
2017-10-10T01:12:17.982Z,0
2017-10-10T01:13:28.332Z,0
2017-10-10T01:14:38.330Z,0
2017-10-10T01:15:47.993Z,0
2017-10-10T01:16:58.327Z,0
2017-10-10T01:18:08.678Z,0
2017-10-10T01:19:19.003Z,0
2017-10-10T01:20:29.336Z,0
2017-10-10T01:21:39.334Z,0
2017-10-10T01:22:49.325Z,0
2017-10-10T01:23:59.327Z,0
2017-10-10T01:25:09.696Z,0
2017-10-10T01:26:20.029Z,0
2017-10-10T01:27:30.028Z,0
2017-10-10T01:28:40.361Z,0
2017-10-10T01:29:50.054Z,0
2017-10-10T01:31:00.387Z,0
2017-10-10T01:32:10.387Z,0
2017-10-10T01:33:20.719Z,0
2017-10-10T01:34:30.719Z,0
2017-10-10T01:35:41.055Z,0
2017-10-10T01:36:51.061Z,0
2017-10-10T01:38:00.723Z,0
2017-10-10T01:39:11.055Z,0
2017-10-10T01:40:21.064Z,0
2017-10-10T01:41:30.049Z,0
2017-10-10T01:42:39.710Z,0
2017-10-10T01:43:50.045Z,0
2017-10-10T01:45:00.387Z,0
2017-10-10T01:46:10.386Z,0
2017-10-10T01:47:20.383Z,0
2017-10-10T01:48:30.379Z,0
2017-10-10T01:49:40.707Z,0
2017-10-10T01:50:50.707Z,0
2017-10-10T01:52:00.702Z,0
2017-10-10T01:53:11.044Z,0
2017-10-10T01:54:21.038Z,0
2017-10-10T01:55:31.364Z,0
2017-10-10T01:56:41.698Z,0
2017-10-10T01:57:51.694Z,0
2017-10-10T01:59:01.694Z,0
2017-10-10T02:00:11.357Z,0
2017-10-10T02:01:21.686Z,0
2017-10-10T02:02:31.349Z,0
2017-10-10T02:03:41.004Z,0
2017-10-10T02:04:51.327Z,0
2017-10-10T02:06:00.987Z,0
2017-10-10T02:07:11.002Z,0
2017-10-10T02:08:21.488Z,0
2017-10-10T02:09:31.158Z,0
2017-10-10T02:10:41.511Z,0
2017-10-10T02:11:51.507Z,0
2017-10-10T02:13:01.173Z,0
2017-10-10T02:14:11.502Z,0
2017-10-10T02:15:21.169Z,0
2017-10-10T02:16:31.175Z,0
2017-10-10T02:17:41.504Z,0
2017-10-10T02:18:51.852Z,0
2017-10-10T02:20:02.193Z,0
2017-10-10T02:21:12.525Z,0
2017-10-10T02:22:22.852Z,0
2017-10-10T02:23:33.178Z,0
2017-10-10T02:24:43.563Z,0
2017-10-10T02:25:53.609Z,0
2017-10-10T02:27:03.608Z,0
2017-10-10T02:28:13.939Z,0
2017-10-10T02:29:24.272Z,0
2017-10-10T02:30:34.271Z,0
2017-10-10T02:31:44.601Z,0
2017-10-10T02:32:54.606Z,0
2017-10-10T02:34:04.949Z,0
2017-10-10T02:35:15.301Z,0
2017-10-10T02:36:25.635Z,0
2017-10-10T02:37:35.621Z,0
2017-10-10T02:38:45.619Z,0
2017-10-10T02:39:55.616Z,0
2017-10-10T02:41:05.618Z,0
2017-10-10T02:42:15.944Z,0
2017-10-10T02:43:26.285Z,0
2017-10-10T02:44:36.618Z,0
2017-10-10T02:45:46.950Z,0
2017-10-10T02:46:57.284Z,0
2017-10-10T02:48:07.625Z,0
2017-10-10T02:49:17.959Z,0
2017-10-10T02:50:28.307Z,0
2017-10-10T02:51:38.643Z,0
2017-10-10T02:52:48.977Z,0
2017-10-10T02:53:58.980Z,0
2017-10-10T02:55:09.328Z,0
2017-10-10T02:56:18.995Z,0
2017-10-10T02:57:29.330Z,0
2017-10-10T02:58:38.994Z,0
2017-10-10T02:59:49.368Z,0
2017-10-10T03:00:59.697Z,0
2017-10-10T03:02:09.362Z,0
2017-10-10T03:03:19.692Z,0
2017-10-10T03:04:29.686Z,0
2017-10-10T03:05:39.686Z,0
2017-10-10T03:06:50.015Z,0
2017-10-10T03:08:00.355Z,0
2017-10-10T03:09:10.689Z,0
2017-10-10T03:10:20.683Z,0
2017-10-10T03:11:30.678Z,0
2017-10-10T03:12:41.028Z,0
2017-10-10T03:13:51.353Z,0
2017-10-10T03:15:01.354Z,0
2017-10-10T03:16:11.017Z,0
2017-10-10T03:17:21.353Z,0
2017-10-10T03:18:31.056Z,0
2017-10-10T03:19:40.738Z,0
2017-10-10T03:20:51.069Z,0
2017-10-10T03:22:01.407Z,0
2017-10-10T03:23:11.743Z,0
2017-10-10T03:24:22.074Z,0
2017-10-10T03:25:32.405Z,0
2017-10-10T03:26:42.405Z,0
2017-10-10T03:27:52.059Z,0
2017-10-10T03:29:02.054Z,0
2017-10-10T03:30:12.059Z,0
2017-10-10T03:31:22.059Z,0
2017-10-10T03:32:32.058Z,0
2017-10-10T03:33:41.750Z,0
2017-10-10T03:34:52.083Z,0
2017-10-10T03:36:01.774Z,0
2017-10-10T03:37:11.781Z,0
2017-10-10T03:38:21.776Z,0
2017-10-10T03:39:32.109Z,0
2017-10-10T03:40:42.437Z,0
2017-10-10T03:41:52.439Z,0
2017-10-10T03:43:02.778Z,0
2017-10-10T03:44:13.115Z,0
2017-10-10T03:45:22.777Z,0
2017-10-10T03:46:33.111Z,0
2017-10-10T03:47:43.108Z,0
2017-10-10T03:48:53.436Z,0
2017-10-10T03:50:03.432Z,0
2017-10-10T03:51:13.431Z,0
2017-10-10T03:52:23.424Z,0
2017-10-10T03:53:33.760Z,0
2017-10-10T03:54:44.105Z,0
2017-10-10T03:55:54.451Z,0
2017-10-10T03:57:04.778Z,0
2017-10-10T03:58:15.105Z,0
2017-10-10T03:59:24.762Z,0
2017-10-10T04:00:34.758Z,0
2017-10-10T04:01:44.419Z,0
2017-10-10T04:02:54.772Z,0
2017-10-10T04:04:05.107Z,0
2017-10-10T04:05:15.442Z,0
2017-10-10T04:06:25.771Z,0
2017-10-10T04:07:36.115Z,0
2017-10-10T04:08:46.451Z,0
2017-10-10T04:09:56.451Z,0
2017-10-10T04:11:05.776Z,0
2017-10-10T04:12:15.772Z,0
2017-10-10T04:13:26.100Z,0
2017-10-10T04:14:36.108Z,0
2017-10-10T04:15:46.445Z,0
2017-10-10T04:16:56.434Z,0
2017-10-10T04:18:06.780Z,0
2017-10-10T04:19:17.125Z,0
2017-10-10T04:20:27.119Z,0
2017-10-10T04:21:36.782Z,0
2017-10-10T04:22:47.114Z,0
2017-10-10T04:23:57.447Z,0
2017-10-10T04:25:07.786Z,0
2017-10-10T04:26:18.118Z,0
2017-10-10T04:27:28.121Z,0
2017-10-10T04:28:38.111Z,0
2017-10-10T04:29:48.466Z,0
2017-10-10T04:30:58.473Z,0
2017-10-10T04:32:08.136Z,0
2017-10-10T04:33:18.134Z,0
2017-10-10T04:34:28.137Z,0
2017-10-10T04:35:38.486Z,0
2017-10-10T04:36:48.836Z,0
2017-10-10T04:37:58.828Z,0
2017-10-10T04:39:08.825Z,0
2017-10-10T04:40:19.153Z,0
2017-10-10T04:41:29.160Z,0
2017-10-10T04:42:38.490Z,0
2017-10-10T04:43:48.823Z,0
2017-10-10T04:44:59.151Z,0
2017-10-10T04:46:09.488Z,0
2017-10-10T04:47:19.822Z,0
2017-10-10T04:48:29.846Z,0
2017-10-10T04:49:39.869Z,0
2017-10-10T04:50:49.529Z,0
2017-10-10T04:51:59.526Z,0
2017-10-10T04:53:09.534Z,0
2017-10-10T04:54:19.875Z,0
2017-10-10T04:55:29.872Z,0
2017-10-10T04:56:40.198Z,0
2017-10-10T04:57:50.524Z,0
2017-10-10T04:59:00.190Z,0
2017-10-10T05:00:10.183Z,0
2017-10-10T05:01:20.181Z,0
2017-10-10T05:02:30.525Z,0
2017-10-10T05:03:40.852Z,0
2017-10-10T05:04:50.850Z,0
2017-10-10T05:06:01.184Z,0
2017-10-10T05:07:11.184Z,0
2017-10-10T05:08:21.184Z,0
2017-10-10T05:09:31.180Z,0
2017-10-10T05:10:41.176Z,4
2017-10-10T05:11:51.181Z,4
2017-10-10T05:13:01.518Z,4
2017-10-10T05:14:11.866Z,0
2017-10-10T05:15:21.627Z,4
2017-10-10T05:16:30.958Z,4
2017-10-10T05:17:41.294Z,4
2017-10-10T05:18:51.308Z,4
2017-10-10T05:20:01.311Z,4
2017-10-10T05:21:11.329Z,8
2017-10-10T05:22:21.338Z,12
2017-10-10T05:23:31.335Z,8
2017-10-10T05:24:41.336Z,12
2017-10-10T05:25:51.335Z,16
2017-10-10T05:27:01.667Z,16
2017-10-10T05:28:11.673Z,24
2017-10-10T05:29:21.690Z,28
2017-10-10T05:30:31.687Z,28
2017-10-10T05:31:41.681Z,36
2017-10-10T05:32:52.020Z,40
2017-10-10T05:34:02.039Z,44
2017-10-10T05:35:12.389Z,52
2017-10-10T05:36:22.388Z,60
2017-10-10T05:37:32.402Z,64
2017-10-10T05:38:42.747Z,72
2017-10-10T05:39:53.077Z,84
2017-10-10T05:41:02.747Z,88
2017-10-10T05:42:13.117Z,100
2017-10-10T05:43:23.119Z,108
2017-10-10T05:44:33.414Z,120
2017-10-10T05:45:43.089Z,128
2017-10-10T05:46:53.082Z,132
2017-10-10T05:48:03.086Z,144
2017-10-10T05:49:13.086Z,156
2017-10-10T05:50:23.417Z,172
2017-10-10T05:51:33.410Z,184
2017-10-10T05:52:43.405Z,196
2017-10-10T05:53:53.419Z,212
2017-10-10T05:55:03.421Z,228
2017-10-10T05:56:13.098Z,240
2017-10-10T05:57:23.431Z,252
2017-10-10T05:58:33.435Z,268
2017-10-10T05:59:43.763Z,280
2017-10-10T06:00:54.095Z,296
2017-10-10T06:02:03.765Z,316
2017-10-10T06:03:14.101Z,336
2017-10-10T06:04:23.767Z,352
2017-10-10T06:05:34.110Z,372
2017-10-10T06:06:44.443Z,392
2017-10-10T06:07:54.452Z,408
2017-10-10T06:09:04.453Z,432
2017-10-10T06:10:14.791Z,460
2017-10-10T06:11:24.796Z,492
2017-10-10T06:12:34.128Z,528
2017-10-10T06:13:44.490Z,564
2017-10-10T06:14:54.491Z,604
2017-10-10T06:16:04.158Z,640
2017-10-10T06:17:14.487Z,668
2017-10-10T06:18:24.162Z,696
2017-10-10T06:19:34.165Z,716
2017-10-10T06:20:44.174Z,736
2017-10-10T06:21:54.181Z,756
2017-10-10T06:23:04.523Z,784
2017-10-10T06:24:14.186Z,812
2017-10-10T06:25:24.603Z,852
2017-10-10T06:26:34.605Z,900
2017-10-10T06:27:44.615Z,940
2017-10-10T06:28:54.614Z,984
2017-10-10T06:30:04.307Z,1028
2017-10-10T06:31:14.789Z,1080
2017-10-10T06:32:24.818Z,1136
2017-10-10T06:33:34.819Z,1184
2017-10-10T06:34:45.144Z,1232
2017-10-10T06:35:54.800Z,1276
2017-10-10T06:37:05.102Z,1320
2017-10-10T06:38:15.425Z,1364
2017-10-10T06:39:25.753Z,1408
2017-10-10T06:40:36.072Z,1460
2017-10-10T06:41:46.392Z,1520
2017-10-10T06:42:56.054Z,1580
2017-10-10T06:44:05.709Z,1632
2017-10-10T06:45:16.045Z,1664
2017-10-10T06:46:26.373Z,1684
2017-10-10T06:47:36.704Z,1720
2017-10-10T06:48:47.032Z,1756
2017-10-10T06:49:56.689Z,1784
2017-10-10T06:51:06.685Z,1808
2017-10-10T06:52:17.007Z,1832
2017-10-10T06:53:26.665Z,1888
2017-10-10T06:54:36.658Z,1964
2017-10-10T06:55:46.653Z,2048
2017-10-10T06:56:56.310Z,2132
2017-10-10T06:58:06.300Z,2232
2017-10-10T06:59:16.308Z,2324
2017-10-10T07:00:25.963Z,2400
2017-10-10T07:01:36.290Z,2468
2017-10-10T07:02:46.282Z,2576
2017-10-10T07:03:56.605Z,2672
2017-10-10T07:05:06.271Z,2736
2017-10-10T07:06:16.268Z,2764
2017-10-10T07:07:26.604Z,2796
2017-10-10T07:08:36.928Z,2856
2017-10-10T07:09:46.923Z,2916
2017-10-10T07:10:56.931Z,2952
2017-10-10T07:12:06.589Z,2960
2017-10-10T07:13:16.579Z,2944
2017-10-10T07:14:26.251Z,2932
2017-10-10T07:15:35.949Z,2928
2017-10-10T07:16:46.269Z,2892
2017-10-10T07:17:56.604Z,2856
2017-10-10T07:19:06.595Z,2812
2017-10-10T07:20:16.583Z,2772
2017-10-10T07:21:26.908Z,2748
2017-10-10T07:22:37.003Z,2760
2017-10-10T07:23:47.336Z,2792
2017-10-10T07:24:57.334Z,2808
2017-10-10T07:26:07.660Z,2784
2017-10-10T07:27:17.652Z,2776
2017-10-10T07:28:27.975Z,2836
2017-10-10T07:29:37.967Z,2972
2017-10-10T07:30:47.625Z,3096
2017-10-10T07:31:57.292Z,3136
2017-10-10T07:33:07.632Z,3096
2017-10-10T07:34:17.620Z,3056
2017-10-10T07:35:27.610Z,3096
2017-10-10T07:36:37.936Z,3188
2017-10-10T07:37:48.276Z,3332
2017-10-10T07:38:58.266Z,3424
2017-10-10T07:40:08.594Z,3432
2017-10-10T07:41:18.258Z,3368
2017-10-10T07:42:28.598Z,3324
2017-10-10T07:43:38.253Z,3372
2017-10-10T07:44:48.245Z,3472
2017-10-10T07:45:58.586Z,3540
2017-10-10T07:47:08.248Z,3592
2017-10-10T07:48:18.584Z,3692
2017-10-10T07:49:28.914Z,3780
2017-10-10T07:50:38.905Z,3780
2017-10-10T07:51:48.902Z,3716
2017-10-10T07:52:58.893Z,3724
2017-10-10T07:54:08.555Z,3716
2017-10-10T07:55:18.886Z,3684
2017-10-10T07:56:29.210Z,3716
2017-10-10T07:57:39.533Z,3716
2017-10-10T07:58:49.529Z,3696
2017-10-10T07:59:59.865Z,3764
2017-10-10T08:01:10.201Z,3820
2017-10-10T08:02:20.530Z,3836
2017-10-10T08:03:30.557Z,3844
2017-10-10T08:04:40.565Z,3816
2017-10-10T08:05:50.896Z,3848
2017-10-10T08:07:01.223Z,3852
2017-10-10T08:08:10.880Z,3840
2017-10-10T08:09:21.209Z,3868
2017-10-10T08:10:33.304Z,4004
2017-10-10T08:11:43.627Z,4040
2017-10-10T08:12:53.957Z,4028
2017-10-10T08:14:03.951Z,4040
2017-10-10T08:15:14.285Z,4148
2017-10-10T08:16:24.275Z,4296
2017-10-10T08:17:34.602Z,4392
2017-10-10T08:18:44.935Z,4456
2017-10-10T08:19:54.930Z,4528
2017-10-10T08:21:04.926Z,4548
2017-10-10T08:22:14.920Z,4552
2017-10-10T08:23:24.913Z,4628
2017-10-10T08:24:34.909Z,4680
2017-10-10T08:25:45.233Z,4764
2017-10-10T08:26:55.557Z,4828
2017-10-10T08:28:05.551Z,4856
2017-10-10T08:29:15.216Z,4852
2017-10-10T08:30:25.554Z,4912
2017-10-10T08:31:35.554Z,5028
2017-10-10T08:32:45.553Z,5088
2017-10-10T08:33:55.895Z,5060
2017-10-10T08:35:05.218Z,5052
2017-10-10T08:36:15.556Z,5116
2017-10-10T08:37:25.884Z,5292
2017-10-10T08:38:36.214Z,5440
2017-10-10T08:39:46.210Z,5536
2017-10-10T08:40:56.541Z,5496
2017-10-10T08:42:06.543Z,5480
2017-10-10T08:43:16.538Z,5576
2017-10-10T08:44:26.534Z,5688
2017-10-10T08:45:36.532Z,5704
2017-10-10T08:46:46.867Z,5568
2017-10-10T08:47:57.216Z,5416
2017-10-10T08:49:07.216Z,5200
2017-10-10T08:50:17.543Z,4872
2017-10-10T08:51:27.545Z,4584
2017-10-10T08:52:37.544Z,4472
2017-10-10T08:53:47.891Z,4628
2017-10-10T08:54:58.226Z,5068
2017-10-10T08:56:08.560Z,5508
2017-10-10T08:57:18.554Z,5764
2017-10-10T08:58:28.218Z,5852
2017-10-10T08:59:38.218Z,5816
2017-10-10T09:00:48.545Z,5724
2017-10-10T09:01:58.538Z,5664
2017-10-10T09:03:08.863Z,5708
2017-10-10T09:04:19.190Z,5764
2017-10-10T09:05:29.514Z,5708
2017-10-10T09:06:39.842Z,5628
2017-10-10T09:07:50.168Z,5656
2017-10-10T09:09:00.163Z,5828
2017-10-10T09:10:09.823Z,6040
2017-10-10T09:11:20.179Z,6256
2017-10-10T09:12:30.179Z,6464
2017-10-10T09:13:40.511Z,6680
2017-10-10T09:14:52.504Z,6776
2017-10-10T09:16:02.836Z,6836
2017-10-10T09:17:13.157Z,6872
2017-10-10T09:18:23.501Z,6908
2017-10-10T09:19:33.500Z,6924
2017-10-10T09:20:43.826Z,6932
2017-10-10T09:21:53.817Z,6828
2017-10-10T09:23:03.812Z,6640
2017-10-10T09:24:13.812Z,6524
2017-10-10T09:25:24.147Z,6536
2017-10-10T09:26:34.140Z,6632
2017-10-10T09:27:44.133Z,6748
2017-10-10T09:28:53.791Z,6812
2017-10-10T09:30:02.783Z,6788
2017-10-10T09:31:12.777Z,6724
2017-10-10T09:32:22.779Z,6672
2017-10-10T09:33:32.440Z,6644
2017-10-10T09:34:42.433Z,6624
2017-10-10T09:35:52.760Z,6620
2017-10-10T09:37:02.754Z,6632
2017-10-10T09:38:12.758Z,6736
2017-10-10T09:39:22.088Z,6876
2017-10-10T09:40:32.080Z,7012
2017-10-10T09:41:42.407Z,7236
2017-10-10T09:42:52.743Z,7400
2017-10-10T09:44:05.081Z,7508
2017-10-10T09:45:15.410Z,7536
2017-10-10T09:46:25.739Z,7516
2017-10-10T09:47:36.067Z,7460
2017-10-10T09:48:46.391Z,7412
2017-10-10T09:49:56.720Z,7428
2017-10-10T09:51:06.712Z,7572
2017-10-10T09:52:17.050Z,7764
2017-10-10T09:53:27.381Z,7848
2017-10-10T09:54:37.043Z,7960
2017-10-10T09:55:47.041Z,8012
2017-10-10T09:56:57.367Z,7928
2017-10-10T09:58:07.723Z,7852
2017-10-10T09:59:18.049Z,7944
2017-10-10T10:00:28.423Z,8168
2017-10-10T10:01:38.084Z,8452
2017-10-10T10:02:48.415Z,8672
2017-10-10T10:03:58.758Z,8800
2017-10-10T10:05:09.095Z,9016
2017-10-10T10:06:19.427Z,9396
2017-10-10T10:07:29.758Z,9720
2017-10-10T10:08:40.090Z,9692
2017-10-10T10:09:49.753Z,9540
2017-10-10T10:11:00.082Z,9568
2017-10-10T10:12:09.739Z,9808
2017-10-10T10:13:20.182Z,9996
2017-10-10T10:14:30.179Z,9928
2017-10-10T10:15:40.502Z,9560
2017-10-10T10:16:50.499Z,9216
2017-10-10T10:18:00.510Z,8972
2017-10-10T10:19:10.183Z,8824
2017-10-10T10:20:19.854Z,8660
2017-10-10T10:21:29.511Z,8380
2017-10-10T10:22:39.842Z,8044
2017-10-10T10:23:50.176Z,7848
2017-10-10T10:25:00.174Z,7476
2017-10-10T10:26:10.508Z,6860
2017-10-10T10:27:20.510Z,6924
2017-10-10T10:28:29.836Z,7116
2017-10-10T10:29:39.502Z,7156
2017-10-10T10:30:49.833Z,7144
2017-10-10T10:31:59.833Z,7232
2017-10-10T10:33:09.835Z,7480
2017-10-10T10:34:19.843Z,7612
2017-10-10T10:35:30.169Z,7824
2017-10-10T10:36:40.497Z,7816
2017-10-10T10:37:50.834Z,7520
2017-10-10T10:39:00.823Z,7416
2017-10-10T10:40:10.824Z,7536
2017-10-10T10:41:21.157Z,7688
2017-10-10T10:42:31.156Z,7828
2017-10-10T10:43:41.160Z,7760
2017-10-10T10:44:51.162Z,7692
2017-10-10T10:46:01.494Z,7568
2017-10-10T10:47:11.153Z,7456
2017-10-10T10:48:20.822Z,7440
2017-10-10T10:49:30.485Z,7972
2017-10-10T10:50:40.146Z,8476
2017-10-10T10:51:50.146Z,8804
2017-10-10T10:53:00.480Z,8772
2017-10-10T10:54:10.505Z,9124
2017-10-10T10:55:20.837Z,8376
2017-10-10T10:56:30.838Z,7944
2017-10-10T10:57:40.511Z,7692
2017-10-10T10:58:50.511Z,7432
2017-10-10T11:00:00.503Z,7092
2017-10-10T11:01:10.166Z,6744
2017-10-10T11:02:20.169Z,6572
2017-10-10T11:03:30.508Z,6772
2017-10-10T11:04:40.504Z,7056
2017-10-10T11:05:50.833Z,7060
2017-10-10T11:07:01.161Z,6952
2017-10-10T11:08:11.498Z,7024
2017-10-10T11:09:21.160Z,7112
2017-10-10T11:10:31.158Z,7232
2017-10-10T11:11:41.159Z,7528
2017-10-10T11:12:50.830Z,7792
2017-10-10T11:14:01.162Z,7724
2017-10-10T11:15:11.508Z,7552
2017-10-10T11:16:21.500Z,7464
2017-10-10T11:17:31.173Z,7408
2017-10-10T11:18:41.167Z,7388
2017-10-10T11:19:51.165Z,7500
2017-10-10T11:21:01.496Z,7736
2017-10-10T11:22:11.504Z,7864
2017-10-10T11:23:21.513Z,7684
2017-10-10T11:24:31.859Z,7312
2017-10-10T11:25:42.192Z,7108
2017-10-10T11:26:52.519Z,7176
2017-10-10T11:28:02.847Z,7264
2017-10-10T11:29:11.840Z,7244
2017-10-10T11:30:22.168Z,7244
2017-10-10T11:31:32.508Z,7328
2017-10-10T11:32:42.840Z,7180
2017-10-10T11:33:53.169Z,6992
2017-10-10T11:35:03.497Z,7156
2017-10-10T11:36:13.854Z,7384
2017-10-10T11:37:23.849Z,7420
2017-10-10T11:38:33.178Z,7300
2017-10-10T11:39:43.175Z,7528
2017-10-10T11:40:53.516Z,7976
2017-10-10T11:42:03.841Z,8384
2017-10-10T11:43:13.837Z,8744
2017-10-10T11:44:23.845Z,9116
2017-10-10T11:45:33.178Z,9552
2017-10-10T11:46:43.505Z,10320
2017-10-10T11:47:53.169Z,9964
2017-10-10T11:49:03.506Z,10448
2017-10-10T11:50:13.838Z,11448
2017-10-10T11:51:24.184Z,11340
2017-10-10T11:52:33.845Z,10484
2017-10-10T11:53:43.508Z,10068
2017-10-10T11:54:53.503Z,9936
2017-10-10T11:56:03.832Z,9860
2017-10-10T11:57:14.165Z,9924
2017-10-10T11:58:24.535Z,9944
2017-10-10T11:59:34.526Z,10188
2017-10-10T12:00:44.189Z,11012
2017-10-10T12:01:54.201Z,9944
2017-10-10T12:03:04.195Z,9084
2017-10-10T12:04:14.191Z,8800
2017-10-10T12:05:24.527Z,8712
2017-10-10T12:06:33.858Z,8632
2017-10-10T12:07:44.202Z,8600
2017-10-10T12:08:54.211Z,8460
2017-10-10T12:10:04.310Z,7864
2017-10-10T12:11:14.309Z,6816
2017-10-10T12:12:24.645Z,7052
2017-10-10T12:13:34.638Z,7980
2017-10-10T12:14:44.639Z,6492
2017-10-10T12:15:54.639Z,7064
2017-10-10T12:17:04.635Z,7804
2017-10-10T12:18:14.658Z,8464
2017-10-10T12:19:24.988Z,8704
2017-10-10T12:20:34.649Z,8664
2017-10-10T12:21:44.985Z,8852
2017-10-10T12:22:54.992Z,9580
2017-10-10T12:24:04.991Z,10992
2017-10-10T12:25:14.652Z,10656
2017-10-10T12:26:25.039Z,10644
2017-10-10T12:27:35.720Z,11800
2017-10-10T12:28:46.057Z,21888
2017-10-10T12:29:55.722Z,19776
2017-10-10T12:31:05.391Z,18688
2017-10-10T12:32:14.720Z,15496
2017-10-10T12:33:24.739Z,12404
2017-10-10T12:34:34.739Z,13392
2017-10-10T12:35:44.744Z,11752
2017-10-10T12:36:55.075Z,10632
2017-10-10T12:38:05.074Z,16256
2017-10-10T12:39:15.414Z,20640
2017-10-10T12:40:25.766Z,18272
2017-10-10T12:41:35.762Z,19168
2017-10-10T12:42:45.759Z,18240
2017-10-10T12:43:56.098Z,9044
2017-10-10T12:45:06.096Z,5800
2017-10-10T12:46:16.435Z,5112
2017-10-10T12:47:26.436Z,4872
2017-10-10T12:48:36.447Z,4936
2017-10-10T12:49:46.447Z,5628
2017-10-10T12:50:56.852Z,6356
2017-10-10T12:52:06.851Z,6976
2017-10-10T12:53:16.854Z,7324
2017-10-10T12:54:27.187Z,7324
2017-10-10T12:55:36.864Z,7780
2017-10-10T12:56:46.570Z,7460
2017-10-10T12:57:56.593Z,7288
2017-10-10T12:59:06.954Z,7424
2017-10-10T13:00:17.291Z,7628
2017-10-10T13:01:27.303Z,7520
2017-10-10T13:02:37.299Z,6944
2017-10-10T13:03:47.643Z,6356
2017-10-10T13:04:57.983Z,6056
2017-10-10T13:06:07.310Z,5872
2017-10-10T13:07:17.650Z,5632
2017-10-10T13:08:27.650Z,5116
2017-10-10T13:09:38.013Z,4676
2017-10-10T13:10:48.020Z,4364
2017-10-10T13:11:57.684Z,4276
2017-10-10T13:13:07.342Z,4268
2017-10-10T13:14:17.009Z,4300
2017-10-10T13:15:27.014Z,4332
2017-10-10T13:16:37.360Z,4280
2017-10-10T13:17:47.695Z,4168
2017-10-10T13:18:58.035Z,4052
2017-10-10T13:20:08.383Z,3872
2017-10-10T13:21:18.389Z,3564
2017-10-10T13:22:28.384Z,3276
2017-10-10T13:23:38.047Z,3052
2017-10-10T13:24:47.706Z,2964
2017-10-10T13:25:58.037Z,2956
2017-10-10T13:27:08.364Z,2928
2017-10-10T13:28:18.364Z,2940
2017-10-10T13:29:28.361Z,2988
2017-10-10T13:30:38.692Z,3048
2017-10-10T13:31:48.362Z,3124
2017-10-10T13:32:58.366Z,3196
2017-10-10T13:34:08.370Z,3236
2017-10-10T13:35:18.703Z,3256
2017-10-10T13:36:28.705Z,3272
2017-10-10T13:37:39.030Z,3268
2017-10-10T13:38:49.366Z,3216
2017-10-10T13:39:59.025Z,3160
2017-10-10T13:41:08.689Z,3076
2017-10-10T13:42:18.691Z,3004
2017-10-10T13:43:30.843Z,2908
2017-10-10T13:44:41.192Z,2808
2017-10-10T13:45:51.183Z,2700
2017-10-10T13:47:00.848Z,2616
2017-10-10T13:48:10.184Z,2556
2017-10-10T13:49:20.188Z,2512
2017-10-10T13:50:30.205Z,2468
2017-10-10T13:51:40.209Z,2432
2017-10-10T13:52:50.207Z,2344
2017-10-10T13:53:59.910Z,2252
2017-10-10T13:55:09.905Z,2156
2017-10-10T13:56:19.902Z,2060
2017-10-10T13:57:30.230Z,1956
2017-10-10T13:58:39.895Z,1844
2017-10-10T13:59:50.225Z,1788
2017-10-10T14:01:00.558Z,1756
2017-10-10T14:02:10.900Z,1744
2017-10-10T14:03:21.228Z,1764
2017-10-10T14:04:31.560Z,1780
2017-10-10T14:05:41.557Z,1808
2017-10-10T14:06:51.884Z,1820
2017-10-10T14:08:02.221Z,1816
2017-10-10T14:09:12.215Z,1836
2017-10-10T14:10:21.546Z,1884
2017-10-10T14:11:31.875Z,1928
2017-10-10T14:12:41.541Z,1960
2017-10-10T14:13:51.871Z,1988
2017-10-10T14:15:01.870Z,2024
2017-10-10T14:16:12.212Z,2084
2017-10-10T14:17:22.209Z,2148
2017-10-10T14:18:31.869Z,2160
2017-10-10T14:19:41.863Z,2152
2017-10-10T14:20:52.192Z,2180
2017-10-10T14:22:02.202Z,2252
2017-10-10T14:23:12.539Z,2340
2017-10-10T14:24:22.892Z,2424
2017-10-10T14:25:33.248Z,2508
2017-10-10T14:26:43.244Z,2596
2017-10-10T14:27:53.240Z,2656
2017-10-10T14:29:03.231Z,2668
2017-10-10T14:30:13.580Z,2656
2017-10-10T14:31:23.575Z,2656
2017-10-10T14:32:33.238Z,2692
2017-10-10T14:33:43.564Z,2744
2017-10-10T14:34:53.900Z,2780
2017-10-10T14:36:03.558Z,2800
2017-10-10T14:37:13.215Z,2812
2017-10-10T14:38:23.545Z,2836
2017-10-10T14:39:33.891Z,2876
2017-10-10T14:40:43.889Z,2880
2017-10-10T14:41:54.228Z,2916
2017-10-10T14:43:04.577Z,2948
2017-10-10T14:44:14.583Z,2956
2017-10-10T14:45:24.257Z,2960
2017-10-10T14:46:33.932Z,2980
2017-10-10T14:47:44.271Z,2992
2017-10-10T14:48:54.632Z,2992
2017-10-10T14:50:04.965Z,2944
2017-10-10T14:51:15.296Z,2840
2017-10-10T14:52:25.640Z,2716
2017-10-10T14:53:35.974Z,2592
2017-10-10T14:54:46.332Z,2488
2017-10-10T14:55:56.669Z,2404
2017-10-10T14:57:06.995Z,2332
2017-10-10T14:58:17.320Z,2260
2017-10-10T14:59:27.649Z,2156
2017-10-10T15:00:37.663Z,2048
2017-10-10T15:01:48.017Z,1948
2017-10-10T15:02:57.684Z,1852
2017-10-10T15:04:07.681Z,1768
2017-10-10T15:05:17.724Z,1684
2017-10-10T15:06:28.055Z,1592
2017-10-10T15:07:38.383Z,1496
2017-10-10T15:08:48.383Z,1404
2017-10-10T15:09:58.716Z,1320
2017-10-10T15:11:08.384Z,1228
2017-10-10T15:12:18.713Z,1160
2017-10-10T15:13:28.718Z,1108
2017-10-10T15:14:39.052Z,1036
2017-10-10T15:15:49.045Z,948
2017-10-10T15:16:59.033Z,868
2017-10-10T15:18:08.360Z,820
2017-10-10T15:19:18.354Z,796
2017-10-10T15:20:28.343Z,792
2017-10-10T15:21:38.350Z,788
2017-10-10T15:22:48.346Z,788
2017-10-10T15:23:58.685Z,792
2017-10-10T15:25:09.030Z,796
2017-10-10T15:26:19.025Z,804
2017-10-10T15:27:28.706Z,812
2017-10-10T15:28:38.708Z,812
2017-10-10T15:29:49.043Z,812
2017-10-10T15:30:59.039Z,820
2017-10-10T15:32:09.369Z,856
2017-10-10T15:33:19.708Z,900
2017-10-10T15:34:29.039Z,936
2017-10-10T15:35:39.372Z,952
2017-10-10T15:36:49.033Z,944
2017-10-10T15:37:59.359Z,928
2017-10-10T15:39:09.351Z,892
2017-10-10T15:40:19.010Z,848
2017-10-10T15:41:28.677Z,804
2017-10-10T15:42:38.336Z,768
2017-10-10T15:43:48.021Z,748
2017-10-10T15:44:58.351Z,724
2017-10-10T15:46:08.681Z,696
2017-10-10T15:47:18.673Z,676
2017-10-10T15:48:28.665Z,648
2017-10-10T15:49:38.657Z,616
2017-10-10T15:50:48.659Z,592
2017-10-10T15:51:58.656Z,572
2017-10-10T15:53:08.663Z,548
2017-10-10T15:54:18.986Z,516
2017-10-10T15:55:28.977Z,484
2017-10-10T15:56:38.637Z,456
2017-10-10T15:57:48.962Z,420
2017-10-10T15:58:59.304Z,372
2017-10-10T16:00:09.635Z,328
2017-10-10T16:01:19.628Z,280
2017-10-10T16:02:29.963Z,232
2017-10-10T16:03:40.289Z,200
2017-10-10T16:04:50.631Z,176
2017-10-10T16:06:00.631Z,164
2017-10-10T16:07:10.300Z,140
2017-10-10T16:08:20.306Z,116
2017-10-10T16:09:30.314Z,100